Startpagina
METAR-TAF:

METAR-TAF

Vliegvelden :

Luchthaven Tunis-Carthage

Tunis, Tunesië

breedte: 36-50N, lengte: 010-14E, hoogte: 3 m

Actueel weer

Dit bericht is 18 minuten geleden gemaakt, om 08:30 UTC
Wind 6 kt uit het noorden, variërend tussen het noordwesten en het noordnoordoosten
Temperatuur 28°C
Vochtigheid 62%
Druk 1014 hPa
Zicht 10 km of meer
Weinig wolken op 2600 ft

METAR: DTTA 240830Z 35006KT 310V020 9999 FEW026 28/20 Q1014

Tijdstip: 09:48 (08:48 UTC)

Verwachting

Dit bericht is 3 uur en het 48 minuten geleden gemaakt, om 05:00 UTC
Verwachting geldig van 24 om 06 UTC tot 25 om 06 UTC
Wind 5 kt uit het noorden
Zicht 10 km of meer
geen wolken onder 1500 m en geen cumulonimbus

TAF: DTTA 240500Z 2406/2506 35005KT CAVOK

Waarnemingen en weersverwachtingen van meer dan 4000 vliegvelden (METAR en TAF).

De beschikbare stations zijn de gele en rode punten op de kaart.

Ga met uw muis naar het station om de naam te zien.

Klik dan om waarnemingen en weersverwachtingen te zien.

kaart wijzigen: klik op de groene knoppen met een zwart kruis om in te zoomen, op de groene knop met een streepje om uit te zoomen of op de groene pijlen voor aangrenzende kaarten.


METAR-TAF: